createdAt,value
2023-01-21T10:32:35.766Z,8.35
2023-01-21T10:35:19.217Z,9.20
2023-01-21T10:38:05.179Z,11.40
2023-01-21T10:41:01.425Z,10.40
2023-01-21T10:43:51.205Z,10.38
2023-01-21T10:46:39.601Z,9.65
2023-01-21T10:49:15.724Z,8.68
2023-01-21T10:51:51.251Z,9.05
2023-01-21T10:54:43.746Z,5.35
2023-01-21T10:57:41.427Z,9.43
2023-01-21T11:00:20.380Z,8.93
2023-01-21T11:02:52.534Z,10.48
2023-01-21T11:05:20.694Z,8.18
2023-01-21T11:07:48.369Z,9.15
2023-01-21T11:10:21.989Z,9.00
2023-01-21T11:12:49.664Z,8.27
2023-01-21T11:15:20.123Z,7.47
2023-01-21T11:17:49.557Z,11.82
2023-01-21T11:20:35.495Z,10.15
2023-01-21T11:23:05.609Z,10.18
2023-01-21T11:25:42.514Z,9.35
2023-01-21T11:28:27.589Z,7.60
2023-01-21T11:31:06.899Z,10.57
2023-01-21T11:41:36.755Z,9.35
2023-01-21T11:44:21.336Z,9.73
2023-01-21T11:46:49.137Z,6.43
2023-01-21T11:53:16.077Z,9.90
2023-01-21T11:55:55.006Z,9.82
2023-01-21T11:58:25.068Z,10.80
2023-01-21T12:00:55.651Z,8.68
2023-01-21T12:07:33.451Z,8.80
2023-01-21T12:10:15.695Z,9.52
2023-01-21T12:12:55.945Z,9.10
2023-01-21T12:15:55.665Z,7.88
2023-01-21T12:18:51.794Z,8.10
2023-01-21T12:21:34.239Z,8.38
2023-01-21T12:24:29.829Z,8.30
2023-01-21T12:27:22.577Z,7.10
2023-01-21T12:29:56.030Z,7.88
2023-01-21T12:32:42.906Z,9.00
2023-01-21T12:35:36.405Z,9.73
2023-01-21T12:38:10.615Z,7.25
2023-01-21T12:40:47.311Z,8.63
2023-01-21T12:43:36.689Z,8.07
2023-01-21T12:46:21.290Z,7.60
2023-01-21T12:49:17.847Z,6.93
2023-01-21T12:51:49.178Z,6.60
2023-01-21T12:54:27.694Z,6.75
2023-01-21T12:57:20.149Z,5.65
2023-01-21T12:59:55.483Z,8.18
2023-01-21T13:02:45.510Z,7.47
2023-01-21T13:05:30.790Z,7.80
2023-01-21T13:08:16.684Z,9.68
2023-01-21T13:10:59.804Z,9.52
2023-01-21T13:13:33.871Z,7.18
2023-01-21T13:16:06.959Z,5.90
2023-01-21T13:18:41.429Z,6.10
2023-01-21T13:21:21.032Z,6.28
2023-01-21T13:24:07.923Z,7.80
2023-01-21T13:26:48.116Z,10.20
2023-01-21T13:29:27.091Z,5.50
2023-01-21T13:32:22.276Z,6.28
2023-01-21T13:35:13.097Z,5.93
2023-01-21T13:38:15.358Z,5.32
2023-01-21T13:43:43.787Z,5.93
2023-01-21T13:46:32.962Z,5.97
2023-01-21T13:49:15.199Z,6.88
2023-01-21T13:52:01.363Z,4.82
2023-01-21T13:54:34.933Z,8.80
2023-01-21T13:57:29.553Z,6.10
2023-01-21T14:00:07.850Z,6.40
2023-01-21T14:02:41.271Z,5.05
2023-01-21T14:05:22.749Z,5.80
2023-01-21T14:07:59.070Z,6.07
2023-01-21T14:10:36.780Z,5.97
2023-01-21T14:13:23.721Z,7.40
2023-01-21T14:16:15.141Z,6.65
2023-01-21T14:19:06.692Z,5.82
2023-01-21T14:21:55.209Z,5.07
2023-01-21T14:24:39.145Z,7.18
2023-01-21T14:27:32.083Z,5.88
2023-01-21T14:30:12.979Z,5.10
2023-01-21T14:32:42.122Z,5.95
2023-01-21T14:35:24.163Z,6.18
2023-01-21T14:38:03.728Z,4.72
2023-01-21T14:40:35.817Z,6.53
2023-01-21T14:43:03.056Z,5.85
2023-01-21T14:45:54.635Z,5.95
2023-01-21T14:48:35.608Z,6.53
2023-01-21T14:51:13.194Z,5.93
2023-01-21T14:53:47.585Z,5.30
2023-01-21T14:56:24.580Z,6.20
2023-01-21T14:58:57.601Z,5.68
2023-01-21T15:04:52.723Z,5.57
2023-01-21T17:01:54.255Z,4.82
2023-01-21T17:04:21.774Z,5.50
2023-01-21T17:06:49.212Z,5.80
2023-01-21T17:09:36.792Z,8.30
2023-01-21T17:12:15.153Z,7.95
2023-01-21T17:14:42.354Z,7.43
2023-01-21T17:17:09.561Z,6.05
2023-01-21T17:19:42.462Z,5.88
2023-01-21T17:22:19.745Z,7.22
2023-01-21T17:25:04.979Z,5.10
2023-01-21T17:27:32.532Z,5.97
2023-01-21T17:30:30.233Z,4.43
2023-01-21T17:33:02.372Z,6.13
2023-01-21T17:35:31.578Z,5.80
2023-01-21T17:38:04.117Z,5.53
2023-01-21T17:40:41.723Z,6.05
2023-01-21T17:43:25.546Z,4.40
2023-01-21T17:45:55.792Z,4.95
2023-01-21T17:48:26.615Z,6.63
2023-01-21T17:50:55.158Z,5.72
2023-01-21T17:53:28.612Z,5.72
2023-01-21T17:56:02.335Z,5.80
2023-01-21T17:58:50.700Z,5.20
2023-01-21T18:01:20.307Z,4.88
2023-01-21T18:03:47.691Z,6.47
2023-01-21T18:06:28.055Z,6.53
2023-01-21T18:08:57.121Z,7.35
2023-01-21T18:11:24.383Z,6.63
2023-01-21T18:13:51.853Z,6.25
2023-01-21T18:16:19.209Z,5.32
2023-01-21T18:18:46.507Z,5.63
2023-01-21T18:21:18.149Z,6.28
2023-01-21T18:23:45.441Z,6.90
2023-01-21T18:26:20.252Z,6.15
2023-01-21T18:28:47.602Z,5.45
2023-01-21T18:31:15.356Z,6.72
2023-01-21T18:33:42.877Z,6.50
2023-01-21T18:36:13.103Z,6.72
2023-01-21T18:38:40.257Z,7.47
2023-01-21T18:41:08.424Z,6.78
2023-01-21T18:43:35.704Z,7.20
2023-01-21T18:46:03.064Z,7.25
2023-01-21T18:48:30.518Z,9.57
2023-01-21T18:50:57.832Z,8.85
2023-01-21T18:53:25.047Z,10.18
2023-01-21T18:55:53.104Z,8.10
2023-01-21T18:58:20.366Z,11.48
2023-01-21T19:00:48.103Z,7.80
2023-01-21T19:03:16.146Z,9.95
2023-01-21T19:05:45.544Z,8.45
2023-01-21T19:08:16.834Z,7.90
2023-01-21T19:10:44.456Z,5.75
2023-01-21T19:13:12.529Z,7.20
2023-01-21T19:15:39.900Z,8.23
2023-01-21T19:18:11.541Z,7.97
2023-01-21T19:20:39.644Z,9.15
2023-01-21T19:27:01.568Z,6.93
2023-01-21T19:29:28.920Z,8.20
2023-01-21T19:31:56.293Z,5.53
2023-01-21T19:34:23.711Z,7.97
2023-01-21T19:36:52.670Z,7.97
2023-01-21T19:39:23.510Z,8.02
2023-01-21T19:42:03.350Z,7.07
2023-01-21T19:44:34.820Z,8.93
2023-01-21T19:47:02.356Z,10.90
2023-01-21T19:49:29.935Z,8.13
2023-01-21T19:51:57.147Z,10.13
2023-01-21T19:54:24.934Z,7.97
2023-01-21T19:56:52.183Z,7.18
2023-01-21T19:59:19.447Z,7.68
2023-01-21T20:01:46.860Z,7.80
2023-01-21T20:04:14.151Z,7.22
2023-01-21T20:06:41.507Z,7.70
2023-01-21T20:09:13.160Z,7.15
2023-01-21T20:11:40.960Z,8.20
2023-01-21T20:14:10.536Z,5.65
2023-01-21T20:16:48.916Z,8.23
2023-01-21T20:19:17.916Z,7.60
2023-01-21T20:22:00.423Z,7.97
2023-01-21T20:24:29.712Z,5.78
2023-01-21T20:26:57.961Z,7.35
2023-01-21T20:29:25.611Z,8.18
2023-01-21T20:31:53.478Z,8.20
2023-01-21T20:34:21.320Z,8.25
2023-01-21T20:36:48.677Z,8.15
2023-01-21T20:39:15.852Z,7.78
2023-01-21T20:41:43.370Z,7.55
2023-01-21T20:44:10.879Z,8.35
2023-01-21T20:46:38.992Z,10.35
2023-01-21T20:49:06.355Z,7.10
2023-01-21T20:51:33.581Z,11.98
2023-01-21T20:54:00.899Z,8.57
2023-01-21T20:56:31.632Z,8.10
2023-01-21T20:58:59.347Z,8.02
2023-01-21T21:01:28.183Z,9.85
2023-01-21T21:03:55.712Z,9.63
2023-01-21T21:06:27.023Z,8.80
2023-01-21T21:08:54.776Z,10.30
2023-01-21T21:11:22.171Z,10.88
2023-01-21T21:13:49.664Z,10.25
2023-01-21T21:16:22.234Z,11.02
2023-01-21T21:18:50.364Z,9.05
2023-01-21T21:21:19.724Z,9.98
2023-01-21T21:23:48.005Z,9.68
2023-01-21T21:26:27.110Z,9.73
2023-01-21T21:28:55.356Z,12.57
2023-01-21T21:31:23.613Z,8.90
2023-01-21T21:33:51.813Z,10.60
2023-01-21T21:36:21.787Z,17.42
2023-01-21T21:38:49.314Z,14.85
2023-01-21T21:41:25.173Z,14.30
2023-01-21T21:43:53.339Z,11.10
2023-01-21T21:46:22.230Z,8.27
2023-01-21T21:48:51.985Z,9.35
2023-01-21T21:51:20.788Z,10.82
2023-01-21T21:53:48.677Z,11.25
2023-01-21T21:56:18.514Z,11.07
2023-01-21T21:58:46.385Z,14.10
2023-01-21T22:01:15.157Z,11.23
2023-01-21T22:03:43.602Z,10.32
2023-01-21T22:06:12.610Z,8.80
2023-01-21T22:08:42.289Z,8.07
2023-01-21T22:11:14.684Z,7.68
2023-01-21T22:13:44.843Z,7.63
2023-01-21T22:16:14.118Z,8.05
2023-01-21T22:18:41.991Z,7.40
2023-01-21T22:21:20.943Z,7.50
2023-01-21T22:23:49.416Z,7.45
2023-01-21T22:26:19.600Z,6.80
2023-01-21T22:28:51.974Z,8.43
2023-01-21T22:31:25.102Z,7.55
2023-01-21T22:33:53.791Z,7.90
2023-01-21T22:36:27.503Z,7.70
2023-01-21T22:38:56.351Z,5.28
2023-01-21T22:41:26.632Z,8.02
2023-01-21T22:43:54.717Z,7.00
2023-01-21T22:46:28.740Z,7.53
2023-01-21T22:48:56.731Z,7.97
2023-01-21T22:51:24.329Z,7.38
2023-01-21T22:53:53.373Z,6.88
2023-01-21T22:56:39.924Z,6.72
2023-01-21T22:59:11.949Z,6.53
2023-01-21T23:01:39.696Z,6.85
2023-01-21T23:04:07.299Z,6.00
2023-01-21T23:06:37.699Z,6.40
2023-01-21T23:09:11.223Z,6.55
2023-01-21T23:11:39.293Z,6.35
2023-01-21T23:14:10.612Z,6.32
2023-01-21T23:16:38.825Z,5.90
2023-01-21T23:19:10.246Z,5.65
2023-01-21T23:21:41.069Z,6.20
2023-01-21T23:24:08.813Z,5.80
2023-01-21T23:26:36.396Z,5.15
2023-01-21T23:29:04.051Z,6.13
2023-01-21T23:31:35.279Z,5.57
2023-01-21T23:34:05.708Z,5.88
2023-01-21T23:36:33.818Z,6.03
2023-01-21T23:39:01.125Z,5.93
2023-01-21T23:41:29.135Z,5.07
2023-01-21T23:44:03.492Z,4.60
2023-01-21T23:46:32.056Z,5.43
2023-01-21T23:48:59.387Z,5.75
2023-01-21T23:51:26.846Z,5.07
2023-01-21T23:53:57.044Z,4.70
2023-01-21T23:56:26.789Z,6.03
2023-01-21T23:58:54.520Z,5.70
